sensor_id;sensor_type;location;lat;lon;timestamp;temperature;humidity
5196;DHT22;2617;51.006;12.436;2023-01-04T00:04:49;3.70;99.90
5196;DHT22;2617;51.006;12.436;2023-01-04T00:09:52;3.60;99.90
5196;DHT22;2617;51.006;12.436;2023-01-04T00:14:55;3.60;99.90
5196;DHT22;2617;51.006;12.436;2023-01-04T00:19:57;3.60;99.90
5196;DHT22;2617;51.006;12.436;2023-01-04T00:25:00;3.60;99.90
5196;DHT22;2617;51.006;12.436;2023-01-04T00:30:02;3.70;99.90
5196;DHT22;2617;51.006;12.436;2023-01-04T00:35:05;3.80;99.90
5196;DHT22;2617;51.006;12.436;2023-01-04T00:40:09;3.90;99.90
5196;DHT22;2617;51.006;12.436;2023-01-04T00:45:12;3.90;99.90
5196;DHT22;2617;51.006;12.436;2023-01-04T00:50:14;3.80;99.90
5196;DHT22;2617;51.006;12.436;2023-01-04T00:55:17;3.80;99.90
5196;DHT22;2617;51.006;12.436;2023-01-04T01:00:19;3.90;99.90
5196;DHT22;2617;51.006;12.436;2023-01-04T01:05:22;3.90;99.90
5196;DHT22;2617;51.006;12.436;2023-01-04T01:10:24;4.00;99.90
5196;DHT22;2617;51.006;12.436;2023-01-04T01:15:28;4.00;99.90
5196;DHT22;2617;51.006;12.436;2023-01-04T01:20:30;4.00;99.90
5196;DHT22;2617;51.006;12.436;2023-01-04T01:25:33;4.00;99.90
5196;DHT22;2617;51.006;12.436;2023-01-04T01:30:39;4.00;99.90
5196;DHT22;2617;51.006;12.436;2023-01-04T01:35:40;4.00;99.90
5196;DHT22;2617;51.006;12.436;2023-01-04T01:40:43;4.00;99.90
5196;DHT22;2617;51.006;12.436;2023-01-04T01:45:47;4.00;99.90
5196;DHT22;2617;51.006;12.436;2023-01-04T01:50:55;4.10;99.90
5196;DHT22;2617;51.006;12.436;2023-01-04T01:55:58;4.00;99.90
5196;DHT22;2617;51.006;12.436;2023-01-04T02:01:01;4.10;99.90
5196;DHT22;2617;51.006;12.436;2023-01-04T02:06:04;4.10;99.90
5196;DHT22;2617;51.006;12.436;2023-01-04T02:11:07;4.10;99.90
5196;DHT22;2617;51.006;12.436;2023-01-04T02:16:11;4.20;99.90
5196;DHT22;2617;51.006;12.436;2023-01-04T02:21:15;4.10;99.90
5196;DHT22;2617;51.006;12.436;2023-01-04T02:37:40;4.00;99.90
5196;DHT22;2617;51.006;12.436;2023-01-04T02:42:47;4.00;99.90
5196;DHT22;2617;51.006;12.436;2023-01-04T02:47:54;4.00;99.90
5196;DHT22;2617;51.006;12.436;2023-01-04T02:53:06;4.00;99.90
5196;DHT22;2617;51.006;12.436;2023-01-04T03:03:33;4.00;99.90
5196;DHT22;2617;51.006;12.436;2023-01-04T03:08:43;4.10;99.90
5196;DHT22;2617;51.006;12.436;2023-01-04T03:13:42;4.10;99.90
5196;DHT22;2617;51.006;12.436;2023-01-04T03:18:47;4.20;99.90
5196;DHT22;2617;51.006;12.436;2023-01-04T03:23:48;4.20;99.90
5196;DHT22;2617;51.006;12.436;2023-01-04T03:28:56;4.30;99.90
5196;DHT22;2617;51.006;12.436;2023-01-04T03:34:05;4.40;99.90
5196;DHT22;2617;51.006;12.436;2023-01-04T03:39:20;4.40;99.90
5196;DHT22;2617;51.006;12.436;2023-01-04T03:44:29;4.40;99.90
5196;DHT22;2617;51.006;12.436;2023-01-04T03:49:38;4.40;99.90
5196;DHT22;2617;51.006;12.436;2023-01-04T03:54:54;4.50;99.90
5196;DHT22;2617;51.006;12.436;2023-01-04T03:59:59;4.50;99.90
5196;DHT22;2617;51.006;12.436;2023-01-04T04:05:01;4.50;99.90
5196;DHT22;2617;51.006;12.436;2023-01-04T04:10:09;4.50;99.90
5196;DHT22;2617;51.006;12.436;2023-01-04T04:15:11;4.50;99.90
5196;DHT22;2617;51.006;12.436;2023-01-04T04:20:14;4.50;99.90
5196;DHT22;2617;51.006;12.436;2023-01-04T04:25:16;4.40;99.90
5196;DHT22;2617;51.006;12.436;2023-01-04T04:30:18;4.40;99.90
5196;DHT22;2617;51.006;12.436;2023-01-04T04:35:21;4.40;99.90
5196;DHT22;2617;51.006;12.436;2023-01-04T04:40:23;4.40;99.90
5196;DHT22;2617;51.006;12.436;2023-01-04T04:45:32;4.50;99.90
5196;DHT22;2617;51.006;12.436;2023-01-04T04:50:34;4.50;99.90
5196;DHT22;2617;51.006;12.436;2023-01-04T04:55:37;4.60;99.90
5196;DHT22;2617;51.006;12.436;2023-01-04T05:00:39;4.60;99.90
5196;DHT22;2617;51.006;12.436;2023-01-04T05:05:41;4.70;99.90
5196;DHT22;2617;51.006;12.436;2023-01-04T05:10:44;4.80;99.90
5196;DHT22;2617;51.006;12.436;2023-01-04T05:15:47;4.90;99.90
5196;DHT22;2617;51.006;12.436;2023-01-04T05:20:49;4.90;99.90
5196;DHT22;2617;51.006;12.436;2023-01-04T05:25:52;5.00;99.90
5196;DHT22;2617;51.006;12.436;2023-01-04T05:30:55;5.20;99.90
5196;DHT22;2617;51.006;12.436;2023-01-04T05:36:00;5.20;99.90
5196;DHT22;2617;51.006;12.436;2023-01-04T05:41:01;5.20;99.90
5196;DHT22;2617;51.006;12.436;2023-01-04T05:46:04;5.30;99.90
5196;DHT22;2617;51.006;12.436;2023-01-04T05:51:06;5.30;99.90
5196;DHT22;2617;51.006;12.436;2023-01-04T05:56:09;5.40;99.90
5196;DHT22;2617;51.006;12.436;2023-01-04T06:01:12;5.40;99.90
5196;DHT22;2617;51.006;12.436;2023-01-04T06:06:14;5.50;99.90
5196;DHT22;2617;51.006;12.436;2023-01-04T06:11:17;5.50;99.90
5196;DHT22;2617;51.006;12.436;2023-01-04T06:16:19;5.60;99.90
5196;DHT22;2617;51.006;12.436;2023-01-04T06:21:22;5.60;99.90
5196;DHT22;2617;51.006;12.436;2023-01-04T06:26:25;5.60;99.90
5196;DHT22;2617;51.006;12.436;2023-01-04T06:31:29;5.80;99.90
5196;DHT22;2617;51.006;12.436;2023-01-04T06:36:32;5.80;99.90
5196;DHT22;2617;51.006;12.436;2023-01-04T06:41:35;5.80;99.90
5196;DHT22;2617;51.006;12.436;2023-01-04T06:46:38;5.80;99.90
5196;DHT22;2617;51.006;12.436;2023-01-04T06:51:40;5.90;99.90
5196;DHT22;2617;51.006;12.436;2023-01-04T06:56:43;5.90;99.90
5196;DHT22;2617;51.006;12.436;2023-01-04T07:01:46;5.90;99.90
5196;DHT22;2617;51.006;12.436;2023-01-04T07:06:48;5.90;99.90
5196;DHT22;2617;51.006;12.436;2023-01-04T07:11:51;5.90;99.90
5196;DHT22;2617;51.006;12.436;2023-01-04T07:16:53;5.80;99.90
5196;DHT22;2617;51.006;12.436;2023-01-04T07:21:55;5.80;99.90
5196;DHT22;2617;51.006;12.436;2023-01-04T07:26:58;5.80;99.90
5196;DHT22;2617;51.006;12.436;2023-01-04T07:32:00;5.90;99.90
5196;DHT22;2617;51.006;12.436;2023-01-04T07:37:03;5.90;99.90
5196;DHT22;2617;51.006;12.436;2023-01-04T07:42:05;6.00;99.90
5196;DHT22;2617;51.006;12.436;2023-01-04T07:47:08;6.00;99.90
5196;DHT22;2617;51.006;12.436;2023-01-04T07:52:10;6.10;99.90
5196;DHT22;2617;51.006;12.436;2023-01-04T07:57:13;6.10;99.90
5196;DHT22;2617;51.006;12.436;2023-01-04T08:02:15;6.00;99.90
5196;DHT22;2617;51.006;12.436;2023-01-04T08:07:18;6.00;99.90
5196;DHT22;2617;51.006;12.436;2023-01-04T08:12:21;6.00;99.90
5196;DHT22;2617;51.006;12.436;2023-01-04T08:17:23;6.00;99.90
5196;DHT22;2617;51.006;12.436;2023-01-04T08:22:26;6.00;99.90
5196;DHT22;2617;51.006;12.436;2023-01-04T08:27:28;6.10;99.90
5196;DHT22;2617;51.006;12.436;2023-01-04T08:32:31;6.10;99.90
5196;DHT22;2617;51.006;12.436;2023-01-04T08:37:34;6.20;99.90
5196;DHT22;2617;51.006;12.436;2023-01-04T08:42:36;6.20;99.90
5196;DHT22;2617;51.006;12.436;2023-01-04T08:47:39;6.20;99.90
5196;DHT22;2617;51.006;12.436;2023-01-04T08:52:42;6.20;99.90
5196;DHT22;2617;51.006;12.436;2023-01-04T08:57:45;6.30;99.90
5196;DHT22;2617;51.006;12.436;2023-01-04T09:02:47;6.30;99.90
5196;DHT22;2617;51.006;12.436;2023-01-04T09:07:50;6.40;99.90
5196;DHT22;2617;51.006;12.436;2023-01-04T09:12:53;6.40;99.90
5196;DHT22;2617;51.006;12.436;2023-01-04T09:17:55;6.40;99.90
5196;DHT22;2617;51.006;12.436;2023-01-04T09:22:58;6.40;99.90
5196;DHT22;2617;51.006;12.436;2023-01-04T09:28:00;6.40;99.90
5196;DHT22;2617;51.006;12.436;2023-01-04T09:33:03;6.30;99.90
5196;DHT22;2617;51.006;12.436;2023-01-04T09:38:05;6.30;99.90
5196;DHT22;2617;51.006;12.436;2023-01-04T09:43:08;6.40;99.90
5196;DHT22;2617;51.006;12.436;2023-01-04T09:48:13;6.50;99.90
5196;DHT22;2617;51.006;12.436;2023-01-04T09:53:20;6.60;99.90
5196;DHT22;2617;51.006;12.436;2023-01-04T09:58:38;6.70;99.90
5196;DHT22;2617;51.006;12.436;2023-01-04T10:03:41;6.70;99.90
5196;DHT22;2617;51.006;12.436;2023-01-04T10:08:41;6.80;99.90
5196;DHT22;2617;51.006;12.436;2023-01-04T10:14:02;6.90;99.90
5196;DHT22;2617;51.006;12.436;2023-01-04T10:19:27;6.90;99.90
5196;DHT22;2617;51.006;12.436;2023-01-04T10:30:32;7.00;99.90
5196;DHT22;2617;51.006;12.436;2023-01-04T10:35:35;7.10;99.90
5196;DHT22;2617;51.006;12.436;2023-01-04T10:40:38;7.10;99.90
5196;DHT22;2617;51.006;12.436;2023-01-04T10:45:47;7.10;99.90
5196;DHT22;2617;51.006;12.436;2023-01-04T10:50:53;7.10;99.90
5196;DHT22;2617;51.006;12.436;2023-01-04T10:56:08;7.00;99.90
5196;DHT22;2617;51.006;12.436;2023-01-04T11:01:20;7.00;99.90
5196;DHT22;2617;51.006;12.436;2023-01-04T11:06:26;7.10;99.90
5196;DHT22;2617;51.006;12.436;2023-01-04T11:11:36;7.10;99.90
5196;DHT22;2617;51.006;12.436;2023-01-04T11:16:39;7.10;99.90
5196;DHT22;2617;51.006;12.436;2023-01-04T11:21:51;7.10;99.90
5196;DHT22;2617;51.006;12.436;2023-01-04T11:27:05;7.10;99.90
5196;DHT22;2617;51.006;12.436;2023-01-04T11:32:13;7.10;99.90
5196;DHT22;2617;51.006;12.436;2023-01-04T11:37:32;7.10;99.90
5196;DHT22;2617;51.006;12.436;2023-01-04T11:42:34;7.10;99.90
5196;DHT22;2617;51.006;12.436;2023-01-04T11:47:43;7.10;99.90
5196;DHT22;2617;51.006;12.436;2023-01-04T11:52:39;7.20;99.90
5196;DHT22;2617;51.006;12.436;2023-01-04T11:57:41;7.20;99.90
5196;DHT22;2617;51.006;12.436;2023-01-04T12:02:44;7.10;99.90
5196;DHT22;2617;51.006;12.436;2023-01-04T12:07:46;7.10;99.90
5196;DHT22;2617;51.006;12.436;2023-01-04T12:12:49;7.10;99.90
5196;DHT22;2617;51.006;12.436;2023-01-04T12:17:54;7.00;99.90
5196;DHT22;2617;51.006;12.436;2023-01-04T12:22:57;7.10;99.90
5196;DHT22;2617;51.006;12.436;2023-01-04T12:28:00;7.10;99.90
5196;DHT22;2617;51.006;12.436;2023-01-04T12:33:35;7.20;99.90
5196;DHT22;2617;51.006;12.436;2023-01-04T12:43:43;7.30;99.90
5196;DHT22;2617;51.006;12.436;2023-01-04T12:48:46;7.40;99.90
5196;DHT22;2617;51.006;12.436;2023-01-04T12:53:58;7.40;99.90
5196;DHT22;2617;51.006;12.436;2023-01-04T12:59:06;7.50;99.90
5196;DHT22;2617;51.006;12.436;2023-01-04T13:04:29;7.60;99.90
5196;DHT22;2617;51.006;12.436;2023-01-04T13:09:31;7.90;99.90
5196;DHT22;2617;51.006;12.436;2023-01-04T13:14:38;7.80;99.90
5196;DHT22;2617;51.006;12.436;2023-01-04T13:19:39;8.00;99.90
5196;DHT22;2617;51.006;12.436;2023-01-04T13:24:42;8.00;99.90
5196;DHT22;2617;51.006;12.436;2023-01-04T13:29:44;8.10;99.90
5196;DHT22;2617;51.006;12.436;2023-01-04T13:34:49;8.10;99.90
5196;DHT22;2617;51.006;12.436;2023-01-04T13:39:58;8.10;99.90
5196;DHT22;2617;51.006;12.436;2023-01-04T13:45:12;8.10;99.90
5196;DHT22;2617;51.006;12.436;2023-01-04T13:50:25;8.10;99.90
5196;DHT22;2617;51.006;12.436;2023-01-04T13:55:29;8.10;99.90
5196;DHT22;2617;51.006;12.436;2023-01-04T14:00:52;8.10;99.90
5196;DHT22;2617;51.006;12.436;2023-01-04T14:06:09;8.00;99.90
5196;DHT22;2617;51.006;12.436;2023-01-04T14:11:09;8.00;99.90
5196;DHT22;2617;51.006;12.436;2023-01-04T14:16:10;8.00;99.90
5196;DHT22;2617;51.006;12.436;2023-01-04T14:21:14;8.00;99.90
5196;DHT22;2617;51.006;12.436;2023-01-04T14:26:29;8.00;99.90
5196;DHT22;2617;51.006;12.436;2023-01-04T14:31:31;8.00;99.90
5196;DHT22;2617;51.006;12.436;2023-01-04T14:36:33;7.90;99.90
5196;DHT22;2617;51.006;12.436;2023-01-04T14:41:38;7.90;99.90
5196;DHT22;2617;51.006;12.436;2023-01-04T14:46:40;7.90;99.90
5196;DHT22;2617;51.006;12.436;2023-01-04T14:51:44;8.00;99.90
5196;DHT22;2617;51.006;12.436;2023-01-04T14:56:47;8.00;99.90
5196;DHT22;2617;51.006;12.436;2023-01-04T15:01:51;8.00;99.90
5196;DHT22;2617;51.006;12.436;2023-01-04T15:06:56;7.90;99.90
5196;DHT22;2617;51.006;12.436;2023-01-04T15:11:56;7.80;99.90
5196;DHT22;2617;51.006;12.436;2023-01-04T15:16:58;7.80;99.90
5196;DHT22;2617;51.006;12.436;2023-01-04T15:22:01;7.80;99.90
5196;DHT22;2617;51.006;12.436;2023-01-04T15:27:03;7.90;99.90
5196;DHT22;2617;51.006;12.436;2023-01-04T15:32:05;7.90;99.90
5196;DHT22;2617;51.006;12.436;2023-01-04T15:37:09;7.90;99.90
5196;DHT22;2617;51.006;12.436;2023-01-04T15:42:12;8.00;99.90
5196;DHT22;2617;51.006;12.436;2023-01-04T15:47:20;8.00;99.90
5196;DHT22;2617;51.006;12.436;2023-01-04T15:52:22;8.00;99.90
5196;DHT22;2617;51.006;12.436;2023-01-04T15:57:25;8.00;99.90
5196;DHT22;2617;51.006;12.436;2023-01-04T16:02:28;8.00;99.90
5196;DHT22;2617;51.006;12.436;2023-01-04T16:07:30;8.10;99.90
5196;DHT22;2617;51.006;12.436;2023-01-04T16:12:32;8.20;99.90
5196;DHT22;2617;51.006;12.436;2023-01-04T16:17:41;8.20;99.90
5196;DHT22;2617;51.006;12.436;2023-01-04T16:22:43;8.20;99.90
5196;DHT22;2617;51.006;12.436;2023-01-04T16:27:45;8.20;99.90
5196;DHT22;2617;51.006;12.436;2023-01-04T16:32:48;8.20;99.90
5196;DHT22;2617;51.006;12.436;2023-01-04T16:37:50;8.30;99.90
5196;DHT22;2617;51.006;12.436;2023-01-04T16:42:52;8.30;99.90
5196;DHT22;2617;51.006;12.436;2023-01-04T16:47:56;8.50;99.90
5196;DHT22;2617;51.006;12.436;2023-01-04T16:52:59;8.50;99.90
5196;DHT22;2617;51.006;12.436;2023-01-04T16:58:01;8.50;99.90
5196;DHT22;2617;51.006;12.436;2023-01-04T17:03:04;8.60;99.90
5196;DHT22;2617;51.006;12.436;2023-01-04T17:08:06;8.70;99.90
5196;DHT22;2617;51.006;12.436;2023-01-04T17:13:09;8.70;99.90
5196;DHT22;2617;51.006;12.436;2023-01-04T17:18:11;8.80;99.90
5196;DHT22;2617;51.006;12.436;2023-01-04T17:23:13;8.90;99.90
5196;DHT22;2617;51.006;12.436;2023-01-04T17:28:16;9.00;99.90
5196;DHT22;2617;51.006;12.436;2023-01-04T17:33:18;9.00;99.90
5196;DHT22;2617;51.006;12.436;2023-01-04T17:38:21;9.10;99.90
5196;DHT22;2617;51.006;12.436;2023-01-04T17:43:23;9.10;99.90
5196;DHT22;2617;51.006;12.436;2023-01-04T17:48:25;9.10;99.90
5196;DHT22;2617;51.006;12.436;2023-01-04T17:53:28;9.20;99.90
5196;DHT22;2617;51.006;12.436;2023-01-04T17:58:30;9.20;99.90
5196;DHT22;2617;51.006;12.436;2023-01-04T18:03:33;9.20;99.90
5196;DHT22;2617;51.006;12.436;2023-01-04T18:08:35;9.20;99.90
5196;DHT22;2617;51.006;12.436;2023-01-04T18:13:39;9.30;99.90
5196;DHT22;2617;51.006;12.436;2023-01-04T18:18:40;9.30;99.90
5196;DHT22;2617;51.006;12.436;2023-01-04T18:23:42;9.30;99.90
5196;DHT22;2617;51.006;12.436;2023-01-04T18:28:45;9.40;99.90
5196;DHT22;2617;51.006;12.436;2023-01-04T18:33:50;9.40;99.90
5196;DHT22;2617;51.006;12.436;2023-01-04T18:38:54;9.40;99.90
5196;DHT22;2617;51.006;12.436;2023-01-04T18:43:57;9.40;99.90
5196;DHT22;2617;51.006;12.436;2023-01-04T18:49:00;9.30;99.90
5196;DHT22;2617;51.006;12.436;2023-01-04T18:54:02;9.30;99.90
5196;DHT22;2617;51.006;12.436;2023-01-04T18:59:05;9.20;99.90
5196;DHT22;2617;51.006;12.436;2023-01-04T19:04:08;9.20;99.90
5196;DHT22;2617;51.006;12.436;2023-01-04T19:09:10;9.20;99.90
5196;DHT22;2617;51.006;12.436;2023-01-04T19:14:13;9.20;99.90
5196;DHT22;2617;51.006;12.436;2023-01-04T19:19:16;9.20;99.90
5196;DHT22;2617;51.006;12.436;2023-01-04T19:24:18;9.20;99.90
5196;DHT22;2617;51.006;12.436;2023-01-04T19:29:21;9.20;99.90
5196;DHT22;2617;51.006;12.436;2023-01-04T19:34:24;9.30;99.90
5196;DHT22;2617;51.006;12.436;2023-01-04T19:39:26;9.30;99.90
5196;DHT22;2617;51.006;12.436;2023-01-04T19:44:29;9.30;99.90
5196;DHT22;2617;51.006;12.436;2023-01-04T19:49:31;9.30;99.90
5196;DHT22;2617;51.006;12.436;2023-01-04T19:54:34;9.30;99.90
5196;DHT22;2617;51.006;12.436;2023-01-04T19:59:36;9.30;99.90
5196;DHT22;2617;51.006;12.436;2023-01-04T20:04:38;9.30;99.90
5196;DHT22;2617;51.006;12.436;2023-01-04T20:09:41;9.40;99.90
5196;DHT22;2617;51.006;12.436;2023-01-04T20:14:45;9.40;99.90
5196;DHT22;2617;51.006;12.436;2023-01-04T20:19:47;9.40;99.90
5196;DHT22;2617;51.006;12.436;2023-01-04T20:24:50;9.40;99.90
5196;DHT22;2617;51.006;12.436;2023-01-04T20:29:53;9.40;99.90
5196;DHT22;2617;51.006;12.436;2023-01-04T20:34:55;9.40;99.90
5196;DHT22;2617;51.006;12.436;2023-01-04T20:39:57;9.50;99.90
5196;DHT22;2617;51.006;12.436;2023-01-04T20:45:00;9.50;99.90
5196;DHT22;2617;51.006;12.436;2023-01-04T20:50:02;9.50;99.90
5196;DHT22;2617;51.006;12.436;2023-01-04T20:55:05;9.50;99.90
5196;DHT22;2617;51.006;12.436;2023-01-04T21:00:09;9.50;99.90
5196;DHT22;2617;51.006;12.436;2023-01-04T21:05:13;9.50;99.90
5196;DHT22;2617;51.006;12.436;2023-01-04T21:10:15;9.50;99.90
5196;DHT22;2617;51.006;12.436;2023-01-04T21:15:18;9.50;99.90
5196;DHT22;2617;51.006;12.436;2023-01-04T21:20:20;9.50;99.90
5196;DHT22;2617;51.006;12.436;2023-01-04T21:25:22;9.60;99.90
5196;DHT22;2617;51.006;12.436;2023-01-04T21:30:25;9.60;99.90
5196;DHT22;2617;51.006;12.436;2023-01-04T21:35:28;9.80;99.90
5196;DHT22;2617;51.006;12.436;2023-01-04T21:40:32;10.00;99.90
5196;DHT22;2617;51.006;12.436;2023-01-04T21:45:37;10.10;99.90
5196;DHT22;2617;51.006;12.436;2023-01-04T21:50:39;10.20;99.90
5196;DHT22;2617;51.006;12.436;2023-01-04T21:55:42;10.20;99.90
5196;DHT22;2617;51.006;12.436;2023-01-04T22:00:45;10.30;99.90
5196;DHT22;2617;51.006;12.436;2023-01-04T22:05:47;10.40;99.90
5196;DHT22;2617;51.006;12.436;2023-01-04T22:10:53;10.60;99.90
5196;DHT22;2617;51.006;12.436;2023-01-04T22:15:55;10.60;99.90
5196;DHT22;2617;51.006;12.436;2023-01-04T22:21:03;10.80;99.90
5196;DHT22;2617;51.006;12.436;2023-01-04T22:26:05;11.10;99.90
5196;DHT22;2617;51.006;12.436;2023-01-04T22:31:09;11.40;99.90
5196;DHT22;2617;51.006;12.436;2023-01-04T22:36:12;11.50;99.90
5196;DHT22;2617;51.006;12.436;2023-01-04T22:41:14;11.70;99.90
5196;DHT22;2617;51.006;12.436;2023-01-04T22:46:16;11.80;99.90
5196;DHT22;2617;51.006;12.436;2023-01-04T22:51:20;11.70;99.90
5196;DHT22;2617;51.006;12.436;2023-01-04T22:56:23;11.70;99.90
5196;DHT22;2617;51.006;12.436;2023-01-04T23:01:27;11.70;99.90
5196;DHT22;2617;51.006;12.436;2023-01-04T23:06:30;11.80;99.90
5196;DHT22;2617;51.006;12.436;2023-01-04T23:11:33;11.70;99.90
5196;DHT22;2617;51.006;12.436;2023-01-04T23:16:36;11.70;99.90
5196;DHT22;2617;51.006;12.436;2023-01-04T23:21:38;11.70;99.90
5196;DHT22;2617;51.006;12.436;2023-01-04T23:26:41;11.70;99.90
5196;DHT22;2617;51.006;12.436;2023-01-04T23:31:44;11.50;99.90
5196;DHT22;2617;51.006;12.436;2023-01-04T23:36:47;11.40;99.90
5196;DHT22;2617;51.006;12.436;2023-01-04T23:41:50;11.40;99.90
5196;DHT22;2617;51.006;12.436;2023-01-04T23:46:54;11.30;99.90
5196;DHT22;2617;51.006;12.436;2023-01-04T23:51:57;11.20;99.90
5196;DHT22;2617;51.006;12.436;2023-01-04T23:56:59;11.10;99.90
